createdAt,value
2023-01-02T00:01:24.036Z,101251.50
2023-01-02T00:04:26.739Z,101236.22
2023-01-02T00:07:30.976Z,101240.88
2023-01-02T00:10:34.937Z,101228.22
2023-01-02T00:13:37.682Z,101220.53
2023-01-02T00:20:03.562Z,101201.41
2023-01-02T00:23:08.068Z,101190.94
2023-01-02T00:26:12.782Z,101199.44
2023-01-02T00:29:15.465Z,101195.56
2023-01-02T00:35:41.243Z,101185.84
2023-01-02T00:38:43.933Z,101188.31
2023-01-02T00:41:47.940Z,101184.59
2023-01-02T00:44:50.645Z,101193.75
2023-01-02T00:51:16.471Z,101196.00
2023-01-02T00:54:20.442Z,101188.44
2023-01-02T00:57:23.148Z,101194.78
2023-01-02T01:00:27.105Z,101192.59
2023-01-02T01:03:31.377Z,101178.53
2023-01-02T01:06:35.905Z,101186.13
2023-01-02T01:09:38.640Z,101186.25
2023-01-02T01:12:42.626Z,101193.63
2023-01-02T01:15:45.342Z,101174.69
2023-01-02T01:22:11.700Z,101161.22
2023-01-02T01:25:15.689Z,101158.56
2023-01-02T01:28:18.396Z,101155.47
2023-01-02T01:31:22.899Z,101151.47
2023-01-02T01:34:26.989Z,101153.06
2023-01-02T01:37:30.945Z,101150.16
2023-01-02T01:40:39.233Z,101147.22
2023-01-02T01:43:45.506Z,101141.94
2023-01-02T01:46:48.922Z,101137.75
2023-01-02T01:50:05.278Z,101138.19
2023-01-02T01:53:12.131Z,101132.59
2023-01-02T01:56:17.195Z,101130.44
2023-01-02T01:59:20.284Z,101126.78
2023-01-02T02:02:25.243Z,101122.44
2023-01-02T02:05:31.413Z,101118.09
2023-01-02T02:12:02.660Z,101099.66
2023-01-02T02:15:09.268Z,101099.00
2023-01-02T02:18:27.108Z,101086.28
2023-01-02T02:21:54.082Z,101071.16
2023-01-02T02:25:20.403Z,101065.88
2023-01-02T02:29:00.033Z,101064.88
2023-01-02T02:32:16.615Z,101047.81
2023-01-02T02:35:50.929Z,101036.53
2023-01-02T02:39:03.854Z,101047.63
2023-01-02T02:42:15.240Z,101042.94
2023-01-02T02:45:25.633Z,101047.41
2023-01-02T02:48:46.209Z,101059.25
2023-01-02T02:52:01.609Z,101038.56
2023-01-02T02:55:12.382Z,101040.25
2023-01-02T02:58:16.378Z,101031.22
2023-01-02T03:01:24.424Z,101019.94
2023-01-02T03:04:32.430Z,101023.03
2023-01-02T03:11:03.705Z,101000.44
2023-01-02T03:14:14.939Z,101003.16
2023-01-02T03:17:25.866Z,100991.56
2023-01-02T03:20:38.768Z,101002.31
2023-01-02T03:23:45.796Z,101001.97
2023-01-02T03:26:55.062Z,101001.44
2023-01-02T03:30:04.603Z,101005.63
2023-01-02T03:33:12.937Z,101004.56
2023-01-02T03:36:20.876Z,101007.59
2023-01-02T03:39:29.899Z,101006.22
2023-01-02T03:42:38.800Z,101005.38
2023-01-02T03:45:48.961Z,101010.34
2023-01-02T03:48:56.060Z,101013.16
2023-01-02T03:52:01.614Z,101001.84
2023-01-02T03:55:05.711Z,100994.69
2023-01-02T03:58:17.555Z,100991.34
2023-01-02T04:01:28.133Z,100991.09
2023-01-02T04:04:39.453Z,100987.53
2023-01-02T04:07:50.308Z,100984.78
2023-01-02T04:10:59.002Z,100991.91
2023-01-02T04:14:05.768Z,100983.66
2023-01-02T04:17:11.304Z,100992.97
2023-01-02T04:20:20.372Z,100984.44
2023-01-02T04:23:31.051Z,100979.78
2023-01-02T04:26:37.811Z,100979.19
2023-01-02T04:29:42.464Z,100973.75
2023-01-02T04:32:46.786Z,100980.63
2023-01-02T04:35:50.746Z,100973.72
2023-01-02T04:38:54.851Z,100966.03
2023-01-02T04:41:57.574Z,100975.38
2023-01-02T04:45:00.290Z,100962.41
2023-01-02T04:48:04.322Z,100969.88
2023-01-02T04:51:07.236Z,100972.09
2023-01-02T04:54:14.269Z,100979.00
2023-01-02T04:57:17.059Z,100965.22
2023-01-02T05:00:21.010Z,100965.50
2023-01-02T05:03:24.990Z,100964.66
2023-01-02T05:06:27.674Z,100971.31
2023-01-02T05:12:53.170Z,100972.94
2023-01-02T05:15:57.006Z,100979.84
2023-01-02T05:18:59.797Z,100977.06
2023-01-02T05:22:19.966Z,100976.78
2023-01-02T05:25:25.341Z,100960.25
2023-01-02T05:28:32.401Z,100963.28
2023-01-02T05:31:37.978Z,100958.03
2023-01-02T05:34:41.954Z,100950.00
2023-01-02T05:37:44.663Z,100954.44
2023-01-02T05:40:48.872Z,100950.03
2023-01-02T05:43:51.564Z,100950.03
2023-01-02T05:46:54.587Z,100947.81
2023-01-02T05:49:58.688Z,100947.84
2023-01-02T05:53:01.411Z,100948.38
2023-01-02T05:56:12.446Z,100954.53
2023-01-02T05:59:15.881Z,100953.16
2023-01-02T06:02:19.924Z,100949.78
2023-01-02T06:05:22.713Z,100950.06
2023-01-02T06:08:26.653Z,100957.22
2023-01-02T06:11:31.567Z,100969.06
2023-01-02T06:14:34.248Z,100958.31
2023-01-02T06:17:38.185Z,100957.78
2023-01-02T06:20:40.942Z,100954.19
2023-01-02T06:23:45.333Z,100956.41
2023-01-02T06:26:49.444Z,100951.69
2023-01-02T06:29:53.419Z,100944.00
2023-01-02T06:32:57.031Z,100939.03
2023-01-02T06:36:00.918Z,100945.09
2023-01-02T06:39:03.896Z,100940.13
2023-01-02T06:42:09.246Z,100948.94
2023-01-02T06:45:13.061Z,100952.25
2023-01-02T06:48:17.335Z,100963.28
2023-01-02T06:51:22.113Z,100952.78
2023-01-02T06:57:47.640Z,100951.41
2023-01-02T07:00:51.776Z,100959.44
2023-01-02T07:03:55.818Z,100961.38
2023-01-02T07:06:59.784Z,100962.75
2023-01-02T07:10:02.517Z,100959.44
2023-01-02T07:13:07.911Z,100974.34
2023-01-02T07:16:12.852Z,100971.56
2023-01-02T07:19:16.866Z,100978.47
2023-01-02T07:22:19.697Z,100988.94
2023-01-02T07:25:24.480Z,100981.50
2023-01-02T07:28:30.385Z,100987.84
2023-01-02T07:31:33.234Z,100982.66
2023-01-02T07:34:37.261Z,100982.06
2023-01-02T07:37:41.285Z,100981.22
2023-01-02T07:40:43.961Z,100978.81
2023-01-02T07:43:48.710Z,100981.28
2023-01-02T07:46:51.408Z,100979.63
2023-01-02T07:49:55.355Z,100986.00
2023-01-02T07:52:58.026Z,100981.28
2023-01-02T07:56:03.281Z,100983.22
2023-01-02T07:59:07.351Z,100987.91
2023-01-02T08:02:12.824Z,100990.66
2023-01-02T08:05:16.924Z,100999.53
2023-01-02T08:08:20.653Z,100998.66
2023-01-02T08:11:24.920Z,100987.38
2023-01-02T08:14:28.968Z,100992.06
2023-01-02T08:17:31.703Z,100990.94
2023-01-02T08:20:34.443Z,100989.25
2023-01-02T08:23:37.690Z,100985.94
2023-01-02T08:26:41.758Z,100991.75
2023-01-02T08:29:45.812Z,100993.69
2023-01-02T08:32:49.522Z,101003.34
2023-01-02T08:35:52.189Z,100992.88
2023-01-02T08:38:56.859Z,101000.59
2023-01-02T08:41:59.650Z,100993.69
2023-01-02T08:45:03.786Z,101000.59
2023-01-02T08:48:20.585Z,100994.75
2023-01-02T08:51:25.841Z,101001.66
2023-01-02T08:54:28.536Z,101008.53
2023-01-02T08:57:32.235Z,101016.84
2023-01-02T09:00:36.298Z,101006.63
2023-01-02T09:06:59.786Z,101008.00
2023-01-02T09:10:02.480Z,101010.16
2023-01-02T09:13:06.177Z,101010.38
2023-01-02T09:16:11.221Z,101009.59
2023-01-02T09:19:14.996Z,101012.88
2023-01-02T09:22:18.669Z,101010.88
2023-01-02T09:25:24.351Z,101017.53
2023-01-02T09:28:28.795Z,101014.22
2023-01-02T09:31:32.955Z,101013.94
2023-01-02T09:34:36.691Z,101018.84
2023-01-02T09:37:39.438Z,101009.44
2023-01-02T09:40:52.017Z,101009.97
2023-01-02T09:43:59.715Z,100997.41
2023-01-02T09:47:07.869Z,100997.44
2023-01-02T09:50:17.498Z,100994.72
2023-01-02T09:53:20.214Z,100986.69
2023-01-02T09:56:30.418Z,100988.91
2023-01-02T09:59:41.989Z,100984.97
2023-01-02T10:03:08.007Z,100987.16
2023-01-02T10:06:16.682Z,100991.31
2023-01-02T10:09:26.451Z,100979.97
2023-01-02T10:12:37.018Z,100978.50
2023-01-02T10:15:45.732Z,100978.28
2023-01-02T10:18:54.228Z,100967.19
2023-01-02T10:22:00.065Z,100972.50
2023-01-02T10:25:09.333Z,100973.59
2023-01-02T10:28:24.148Z,100962.91
2023-01-02T10:31:32.023Z,100961.44
2023-01-02T10:34:42.054Z,100958.97
2023-01-02T10:37:45.777Z,100953.97
2023-01-02T10:40:51.299Z,100958.19
2023-01-02T10:43:58.462Z,100949.53
2023-01-02T10:47:13.915Z,100959.22
2023-01-02T10:50:21.717Z,100954.59
2023-01-02T10:53:33.409Z,100959.25
2023-01-02T10:56:39.015Z,100957.28
2023-01-02T10:59:45.222Z,100939.88
2023-01-02T11:02:52.768Z,100956.38
2023-01-02T11:06:05.830Z,100952.19
2023-01-02T11:09:25.660Z,100951.75
2023-01-02T11:12:28.508Z,100954.25
2023-01-02T11:15:36.700Z,100956.19
2023-01-02T11:18:40.609Z,100945.75
2023-01-02T11:21:46.709Z,100951.25
2023-01-02T11:25:01.358Z,100954.66
2023-01-02T11:28:06.524Z,100947.41
2023-01-02T11:31:12.957Z,100952.19
2023-01-02T11:34:22.082Z,100957.66
2023-01-02T11:37:26.805Z,100951.13
2023-01-02T11:40:32.994Z,100955.16
2023-01-02T11:43:51.909Z,100962.22
2023-01-02T11:46:56.705Z,100947.56
2023-01-02T11:49:59.927Z,100955.31
2023-01-02T11:53:10.147Z,100954.69
2023-01-02T11:56:21.016Z,100963.06
2023-01-02T11:59:30.289Z,100962.22
2023-01-02T12:06:18.485Z,100946.47
2023-01-02T12:09:31.352Z,100931.25
2023-01-02T12:12:46.140Z,100937.91
2023-01-02T12:16:17.770Z,100947.66
2023-01-02T12:19:48.968Z,100945.91
2023-01-02T12:23:14.181Z,100958.72
2023-01-02T12:26:25.043Z,100957.31
2023-01-02T12:29:47.359Z,100970.03
2023-01-02T12:33:18.050Z,100963.34
2023-01-02T12:36:34.711Z,100956.66
2023-01-02T12:40:05.742Z,100953.63
2023-01-02T12:43:45.092Z,100966.63
2023-01-02T12:47:18.901Z,100964.97
2023-01-02T12:50:48.582Z,100968.09
2023-01-02T12:54:19.126Z,100964.25
2023-01-02T12:57:31.737Z,100973.69
2023-01-02T13:00:56.565Z,100972.28
2023-01-02T13:04:04.442Z,100973.41
2023-01-02T13:07:17.635Z,100972.56
2023-01-02T13:10:23.491Z,100973.28
2023-01-02T13:13:32.085Z,100973.34
2023-01-02T13:16:37.127Z,100975.84
2023-01-02T13:19:45.340Z,100980.25
2023-01-02T13:22:56.187Z,100978.56
2023-01-02T13:26:04.320Z,100977.13
2023-01-02T13:29:29.405Z,100981.84
2023-01-02T13:32:34.281Z,100971.63
2023-01-02T13:35:39.555Z,100978.81
2023-01-02T13:38:43.351Z,100986.28
2023-01-02T13:42:09.721Z,100978.03
2023-01-02T13:45:17.194Z,100995.44
2023-01-02T13:48:27.923Z,100998.16
2023-01-02T13:51:34.008Z,101000.41
2023-01-02T13:54:38.286Z,100997.63
2023-01-02T13:57:42.242Z,100995.31
2023-01-02T14:00:54.015Z,101001.75
2023-01-02T14:04:39.453Z,101002.88
2023-01-02T14:07:48.689Z,101002.91
2023-01-02T14:10:56.338Z,101012.31
2023-01-02T14:14:00.923Z,101018.66
2023-01-02T14:17:16.426Z,101017.84
2023-01-02T14:20:26.412Z,101029.75
2023-01-02T14:26:57.315Z,101027.81
2023-01-02T14:30:03.280Z,101028.38
2023-01-02T14:33:08.132Z,101033.03
2023-01-02T14:39:36.798Z,101058.25
2023-01-02T14:42:57.967Z,101048.00
2023-01-02T14:46:09.627Z,101065.97
2023-01-02T14:49:25.255Z,101067.41
2023-01-02T14:52:36.162Z,101063.81
2023-01-02T14:55:42.269Z,101069.06
2023-01-02T14:58:49.369Z,101074.84
2023-01-02T15:01:56.451Z,101086.47
2023-01-02T15:05:06.508Z,101083.69
2023-01-02T15:08:14.459Z,101096.13
2023-01-02T15:11:37.971Z,101100.00
2023-01-02T15:14:41.432Z,101108.84
2023-01-02T15:17:46.836Z,101115.47
2023-01-02T15:20:52.530Z,101126.25
2023-01-02T15:24:01.949Z,101123.50
2023-01-02T15:27:16.634Z,101142.25
2023-01-02T15:30:25.949Z,101158.88
2023-01-02T15:33:29.411Z,101148.34
2023-01-02T15:36:40.115Z,101149.75
2023-01-02T15:39:46.610Z,101162.69
2023-01-02T15:43:08.873Z,101169.06
2023-01-02T15:46:14.255Z,101181.16
2023-01-02T15:49:18.585Z,101188.66
2023-01-02T15:52:24.055Z,101193.03
2023-01-02T15:55:31.954Z,101195.22
2023-01-02T15:58:37.311Z,101197.97
2023-01-02T16:01:45.808Z,101201.56
2023-01-02T16:05:08.969Z,101211.78
2023-01-02T16:08:19.746Z,101211.50
2023-01-02T16:11:25.771Z,101230.50
2023-01-02T16:14:35.289Z,101236.34
2023-01-02T16:17:39.924Z,101238.66
2023-01-02T16:20:43.900Z,101229.25
2023-01-02T16:23:53.374Z,101243.41
2023-01-02T16:26:57.787Z,101246.16
2023-01-02T16:30:00.558Z,101255.09
2023-01-02T16:33:06.668Z,101262.25
2023-01-02T16:36:11.811Z,101273.13
2023-01-02T16:39:41.513Z,101272.41
2023-01-02T16:42:45.569Z,101273.19
2023-01-02T16:45:50.737Z,101285.53
2023-01-02T16:48:54.743Z,101282.13
2023-01-02T16:52:01.756Z,101286.78
2023-01-02T16:55:05.435Z,101295.00
2023-01-02T16:58:10.126Z,101296.78
2023-01-02T17:01:14.992Z,101288.63
2023-01-02T17:04:18.013Z,101299.84
2023-01-02T17:07:22.583Z,101306.38
2023-01-02T17:10:26.216Z,101307.13
2023-01-02T17:17:11.529Z,101308.38
2023-01-02T17:20:17.075Z,101314.97
2023-01-02T17:23:21.453Z,101310.88
2023-01-02T17:26:24.436Z,101316.38
2023-01-02T17:29:30.530Z,101312.38
2023-01-02T17:32:33.563Z,101330.63
2023-01-02T17:35:36.657Z,101330.28
2023-01-02T17:38:39.347Z,101327.31
2023-01-02T17:41:42.086Z,101327.81
2023-01-02T17:44:46.169Z,101334.34
2023-01-02T17:48:02.104Z,101345.56
2023-01-02T17:51:11.685Z,101350.78
2023-01-02T17:54:14.428Z,101354.63
2023-01-02T17:57:17.185Z,101367.34
2023-01-02T18:00:23.342Z,101373.38
2023-01-02T18:03:27.937Z,101376.19
2023-01-02T18:06:30.687Z,101386.94
2023-01-02T18:09:34.612Z,101392.75
2023-01-02T18:12:37.778Z,101392.59
2023-01-02T18:15:43.232Z,101391.94
2023-01-02T18:18:46.822Z,101388.91
2023-01-02T18:21:51.768Z,101382.41
2023-01-02T18:24:54.955Z,101377.00
2023-01-02T18:28:03.164Z,101373.09
2023-01-02T18:31:15.332Z,101388.84
2023-01-02T18:34:46.528Z,101396.53
2023-01-02T18:37:44.273Z,101421.22
2023-01-02T18:40:47.420Z,101414.00
2023-01-02T18:43:54.020Z,101413.41
2023-01-02T18:47:05.283Z,101419.81
2023-01-02T18:50:28.681Z,101426.22
2023-01-02T18:53:46.598Z,101432.81
2023-01-02T18:57:02.546Z,101427.88
2023-01-02T19:00:22.466Z,101416.72
2023-01-02T19:03:28.894Z,101420.81
2023-01-02T19:06:36.861Z,101433.66
2023-01-02T19:09:39.918Z,101436.22
2023-01-02T19:13:08.235Z,101444.16
2023-01-02T19:16:15.178Z,101455.56
2023-01-02T19:19:25.457Z,101450.81
2023-01-02T19:22:34.182Z,101457.00
2023-01-02T19:25:36.862Z,101464.88
2023-01-02T19:28:48.554Z,101467.13
2023-01-02T19:32:25.771Z,101472.81
2023-01-02T19:35:57.580Z,101470.31
2023-01-02T19:39:01.778Z,101487.00
2023-01-02T19:42:23.524Z,101474.97
2023-01-02T19:45:29.341Z,101476.75
2023-01-02T19:48:32.151Z,101497.63
2023-01-02T19:51:36.244Z,101493.84
2023-01-02T19:54:39.550Z,101509.50
2023-01-02T19:57:42.602Z,101503.13
2023-01-02T20:00:45.694Z,101501.97
2023-01-02T20:03:49.685Z,101508.97
2023-01-02T20:06:54.121Z,101504.28
2023-01-02T20:09:58.161Z,101510.81
2023-01-02T20:13:00.936Z,101508.81
2023-01-02T20:16:04.905Z,101528.81
2023-01-02T20:19:07.665Z,101538.41
2023-01-02T20:22:11.835Z,101532.59
2023-01-02T20:45:55.875Z,101536.00
2023-01-02T20:48:57.309Z,101553.72
2023-01-02T20:51:59.901Z,101573.78
2023-01-02T20:55:02.559Z,101583.00
2023-01-02T20:58:03.891Z,101600.66
2023-01-02T21:01:07.290Z,101605.53
2023-01-02T21:04:08.741Z,101617.50
2023-01-02T21:07:11.356Z,101609.38
2023-01-02T21:10:13.995Z,101610.44
2023-01-02T21:13:15.303Z,101617.38
2023-01-02T21:16:18.830Z,101620.59
2023-01-02T21:19:20.225Z,101622.03
2023-01-02T21:22:21.571Z,101624.88
2023-01-02T21:28:46.565Z,101629.13
2023-01-02T21:31:48.596Z,101642.31
2023-01-02T21:34:49.978Z,101640.72
2023-01-02T21:37:52.607Z,101651.25
2023-01-02T21:40:54.997Z,101647.41
2023-01-02T21:43:57.636Z,101652.09
2023-01-02T21:46:59.832Z,101658.28
2023-01-02T21:50:02.516Z,101659.75
2023-01-02T21:53:04.033Z,101658.63
2023-01-02T21:56:06.978Z,101660.78
2023-01-02T21:59:09.615Z,101675.06
2023-01-02T22:02:12.997Z,101693.69
2023-01-02T22:05:15.818Z,101691.75
2023-01-02T22:08:21.293Z,101697.94
2023-01-02T22:11:42.242Z,101703.69
2023-01-02T22:14:44.529Z,101691.75
2023-01-02T22:17:47.802Z,101700.47
2023-01-02T22:20:49.090Z,101705.75
2023-01-02T22:23:51.683Z,101706.63
2023-01-02T22:26:56.608Z,101702.00
2023-01-02T22:33:23.691Z,101702.53
2023-01-02T22:36:25.915Z,101720.56
2023-01-02T22:39:29.128Z,101715.91
2023-01-02T22:43:02.858Z,101717.69
2023-01-02T22:46:06.821Z,101724.09
2023-01-02T22:49:15.911Z,101732.53
2023-01-02T22:52:17.322Z,101739.34
2023-01-02T22:55:21.955Z,101737.97
2023-01-02T22:58:25.893Z,101734.22
2023-01-02T23:01:30.296Z,101736.28
2023-01-02T23:04:33.976Z,101743.97
2023-01-02T23:07:35.287Z,101745.56
2023-01-02T23:10:37.951Z,101757.28
2023-01-02T23:13:39.438Z,101756.63
2023-01-02T23:17:00.655Z,101760.72
2023-01-02T23:20:03.114Z,101768.91
2023-01-02T23:23:05.747Z,101764.91
2023-01-02T23:26:07.552Z,101758.97
2023-01-02T23:29:11.108Z,101758.41
2023-01-02T23:32:14.603Z,101759.44
2023-01-02T23:35:16.727Z,101772.25
2023-01-02T23:38:20.079Z,101772.41
2023-01-02T23:41:21.424Z,101779.56
2023-01-02T23:44:25.269Z,101774.84
2023-01-02T23:47:27.928Z,101773.28
2023-01-02T23:50:29.880Z,101784.44
2023-01-02T23:53:33.540Z,101791.28
2023-01-02T23:56:37.774Z,101792.94
